sensor_id;sensor_type;location;lat;lon;timestamp;pressure;altitude;pressure_sealevel;temperature;humidity
34506;BME280;20748;42.632;23.198;2023-10-13T00:00:49;92569.84;;;10.54;85.45
34506;BME280;20748;42.632;23.198;2023-10-13T00:03:30;92561.41;;;10.43;86.04
34506;BME280;20748;42.632;23.198;2023-10-13T00:06:22;92563.25;;;10.38;86.51
34506;BME280;20748;42.632;23.198;2023-10-13T00:08:59;92558.53;;;10.40;87.12
34506;BME280;20748;42.632;23.198;2023-10-13T00:11:33;92546.56;;;10.39;86.69
34506;BME280;20748;42.632;23.198;2023-10-13T00:14:07;92556.19;;;10.43;86.68
34506;BME280;20748;42.632;23.198;2023-10-13T00:16:44;92555.66;;;10.41;87.21
34506;BME280;20748;42.632;23.198;2023-10-13T00:19:34;92551.97;;;10.42;87.16
34506;BME280;20748;42.632;23.198;2023-10-13T00:22:18;92551.22;;;10.42;87.15
34506;BME280;20748;42.632;23.198;2023-10-13T00:24:52;92552.63;;;10.34;87.27
34506;BME280;20748;42.632;23.198;2023-10-13T00:27:31;92544.31;;;10.32;87.55
34506;BME280;20748;42.632;23.198;2023-10-13T00:30:08;92550.50;;;10.36;87.03
34506;BME280;20748;42.632;23.198;2023-10-13T00:32:52;92541.97;;;10.30;87.52
34506;BME280;20748;42.632;23.198;2023-10-13T00:35:28;92541.19;;;10.30;87.66
34506;BME280;20748;42.632;23.198;2023-10-13T00:38:08;92547.19;;;10.30;87.49
34506;BME280;20748;42.632;23.198;2023-10-13T00:40:46;92547.97;;;10.31;86.83
34506;BME280;20748;42.632;23.198;2023-10-13T00:43:25;92546.19;;;10.26;87.08
34506;BME280;20748;42.632;23.198;2023-10-13T00:46:12;92550.94;;;10.24;87.77
34506;BME280;20748;42.632;23.198;2023-10-13T00:48:47;92556.63;;;10.26;87.95
34506;BME280;20748;42.632;23.198;2023-10-13T00:51:25;92543.66;;;10.21;87.53
34506;BME280;20748;42.632;23.198;2023-10-13T00:54:06;92545.22;;;10.22;88.01
34506;BME280;20748;42.632;23.198;2023-10-13T00:56:45;92545.72;;;10.24;87.54
34506;BME280;20748;42.632;23.198;2023-10-13T00:59:21;92549.38;;;10.23;86.65
34506;BME280;20748;42.632;23.198;2023-10-13T01:01:57;92551.84;;;10.14;87.19
34506;BME280;20748;42.632;23.198;2023-10-13T01:04:32;92556.91;;;10.05;88.13
34506;BME280;20748;42.632;23.198;2023-10-13T01:07:06;92560.56;;;10.04;88.68
34506;BME280;20748;42.632;23.198;2023-10-13T01:09:40;92548.38;;;10.00;88.70
34506;BME280;20748;42.632;23.198;2023-10-13T01:12:15;92552.53;;;10.01;89.24
34506;BME280;20748;42.632;23.198;2023-10-13T01:14:47;92551.50;;;10.02;88.99
34506;BME280;20748;42.632;23.198;2023-10-13T01:17:21;92556.63;;;10.07;89.44
34506;BME280;20748;42.632;23.198;2023-10-13T01:19:57;92553.03;;;10.03;89.37
34506;BME280;20748;42.632;23.198;2023-10-13T01:22:32;92559.59;;;10.00;88.91
34506;BME280;20748;42.632;23.198;2023-10-13T01:25:07;92555.50;;;9.94;89.91
34506;BME280;20748;42.632;23.198;2023-10-13T01:27:45;92558.09;;;9.94;89.51
34506;BME280;20748;42.632;23.198;2023-10-13T01:30:21;92556.03;;;9.91;89.84
34506;BME280;20748;42.632;23.198;2023-10-13T01:32:58;92549.81;;;9.87;90.29
34506;BME280;20748;42.632;23.198;2023-10-13T01:35:33;92546.41;;;9.91;90.21
34506;BME280;20748;42.632;23.198;2023-10-13T01:38:14;92551.41;;;9.88;90.38
34506;BME280;20748;42.632;23.198;2023-10-13T01:40:48;92555.03;;;9.87;90.05
34506;BME280;20748;42.632;23.198;2023-10-13T01:43:24;92561.59;;;9.84;90.42
34506;BME280;20748;42.632;23.198;2023-10-13T01:45:57;92553.84;;;9.79;90.08
34506;BME280;20748;42.632;23.198;2023-10-13T01:48:30;92563.69;;;9.82;89.98
34506;BME280;20748;42.632;23.198;2023-10-13T01:51:05;92561.38;;;9.80;90.51
34506;BME280;20748;42.632;23.198;2023-10-13T01:53:42;92558.75;;;9.80;89.78
34506;BME280;20748;42.632;23.198;2023-10-13T01:56:17;92556.72;;;9.77;90.30
34506;BME280;20748;42.632;23.198;2023-10-13T01:58:55;92561.09;;;9.82;90.41
34506;BME280;20748;42.632;23.198;2023-10-13T02:01:33;92559.34;;;9.77;90.57
34506;BME280;20748;42.632;23.198;2023-10-13T02:04:09;92550.44;;;9.78;90.12
34506;BME280;20748;42.632;23.198;2023-10-13T02:06:43;92546.25;;;9.83;90.03
34506;BME280;20748;42.632;23.198;2023-10-13T02:09:17;92541.56;;;9.79;90.00
34506;BME280;20748;42.632;23.198;2023-10-13T02:11:59;92546.56;;;9.76;90.01
34506;BME280;20748;42.632;23.198;2023-10-13T02:14:33;92545.03;;;9.75;90.14
34506;BME280;20748;42.632;23.198;2023-10-13T02:17:06;92544.03;;;9.71;90.11
34506;BME280;20748;42.632;23.198;2023-10-13T02:19:45;92543.53;;;9.69;90.72
34506;BME280;20748;42.632;23.198;2023-10-13T02:22:19;92543.25;;;9.70;90.34
34506;BME280;20748;42.632;23.198;2023-10-13T02:25:01;92537.53;;;9.68;90.62
34506;BME280;20748;42.632;23.198;2023-10-13T02:27:40;92540.44;;;9.66;90.61
34506;BME280;20748;42.632;23.198;2023-10-13T02:30:15;92543.25;;;9.70;90.79
34506;BME280;20748;42.632;23.198;2023-10-13T02:32:56;92547.41;;;9.71;90.73
34506;BME280;20748;42.632;23.198;2023-10-13T02:35:36;92544.59;;;9.67;90.46
34506;BME280;20748;42.632;23.198;2023-10-13T02:38:13;92543.81;;;9.67;90.23
34506;BME280;20748;42.632;23.198;2023-10-13T02:40:49;92546.47;;;9.62;90.39
34506;BME280;20748;42.632;23.198;2023-10-13T02:43:23;92541.78;;;9.64;90.77
34506;BME280;20748;42.632;23.198;2023-10-13T02:45:57;92547.25;;;9.62;90.77
34506;BME280;20748;42.632;23.198;2023-10-13T02:48:31;92540.56;;;9.56;91.24
34506;BME280;20748;42.632;23.198;2023-10-13T02:51:12;92544.97;;;9.56;91.83
34506;BME280;20748;42.632;23.198;2023-10-13T02:53:49;92544.00;;;9.51;91.60
34506;BME280;20748;42.632;23.198;2023-10-13T02:56:23;92551.50;;;9.53;91.79
34506;BME280;20748;42.632;23.198;2023-10-13T02:58:58;92552.78;;;9.56;91.14
34506;BME280;20748;42.632;23.198;2023-10-13T03:01:37;92551.50;;;9.53;90.46
34506;BME280;20748;42.632;23.198;2023-10-13T03:04:10;92555.97;;;9.52;90.84
34506;BME280;20748;42.632;23.198;2023-10-13T03:06:45;92550.53;;;9.49;90.82
34506;BME280;20748;42.632;23.198;2023-10-13T03:09:20;92554.69;;;9.50;90.98
34506;BME280;20748;42.632;23.198;2023-10-13T03:11:55;92558.88;;;9.46;90.86
34506;BME280;20748;42.632;23.198;2023-10-13T03:14:30;92557.56;;;9.48;90.83
34506;BME280;20748;42.632;23.198;2023-10-13T03:17:04;92558.94;;;9.40;91.00
34506;BME280;20748;42.632;23.198;2023-10-13T03:19:42;92560.00;;;9.39;91.33
34506;BME280;20748;42.632;23.198;2023-10-13T03:22:19;92564.19;;;9.35;91.41
34506;BME280;20748;42.632;23.198;2023-10-13T03:25:03;92559.72;;;9.41;91.91
34506;BME280;20748;42.632;23.198;2023-10-13T03:27:39;92558.22;;;9.35;92.02
34506;BME280;20748;42.632;23.198;2023-10-13T03:30:36;92558.72;;;9.37;92.64
34506;BME280;20748;42.632;23.198;2023-10-13T03:33:11;92562.41;;;9.31;93.13
34506;BME280;20748;42.632;23.198;2023-10-13T03:35:46;92555.88;;;9.33;92.74
34506;BME280;20748;42.632;23.198;2023-10-13T03:38:26;92554.78;;;9.39;92.07
34506;BME280;20748;42.632;23.198;2023-10-13T03:41:00;92553.00;;;9.35;91.65
34506;BME280;20748;42.632;23.198;2023-10-13T03:43:44;92553.50;;;9.37;91.44
34506;BME280;20748;42.632;23.198;2023-10-13T03:46:40;92549.84;;;9.38;91.35
34506;BME280;20748;42.632;23.198;2023-10-13T03:49:15;92542.66;;;9.30;91.85
34506;BME280;20748;42.632;23.198;2023-10-13T03:51:54;92548.56;;;9.35;91.71
34506;BME280;20748;42.632;23.198;2023-10-13T03:54:30;92536.56;;;9.39;91.04
34506;BME280;20748;42.632;23.198;2023-10-13T03:57:06;92539.16;;;9.39;91.11
34506;BME280;20748;42.632;23.198;2023-10-13T03:59:43;92537.56;;;9.44;91.86
34506;BME280;20748;42.632;23.198;2023-10-13T04:02:22;92533.41;;;9.43;91.43
34506;BME280;20748;42.632;23.198;2023-10-13T04:05:00;92524.59;;;9.38;90.96
34506;BME280;20748;42.632;23.198;2023-10-13T04:07:40;92530.84;;;9.37;91.13
34506;BME280;20748;42.632;23.198;2023-10-13T04:10:34;92535.53;;;9.35;91.49
34506;BME280;20748;42.632;23.198;2023-10-13T04:13:33;92531.44;;;9.29;91.86
34506;BME280;20748;42.632;23.198;2023-10-13T04:16:24;92530.47;;;9.25;92.21
34506;BME280;20748;42.632;23.198;2023-10-13T04:19:24;92528.88;;;9.24;91.66
34506;BME280;20748;42.632;23.198;2023-10-13T04:22:01;92528.94;;;9.19;92.12
34506;BME280;20748;42.632;23.198;2023-10-13T04:24:49;92533.00;;;9.06;92.75
34506;BME280;20748;42.632;23.198;2023-10-13T04:27:54;92538.94;;;9.06;92.55
34506;BME280;20748;42.632;23.198;2023-10-13T04:30:51;92538.69;;;9.08;92.22
34506;BME280;20748;42.632;23.198;2023-10-13T04:33:32;92545.16;;;9.10;92.41
34506;BME280;20748;42.632;23.198;2023-10-13T04:36:18;92537.19;;;9.02;92.59
34506;BME280;20748;42.632;23.198;2023-10-13T04:39:08;92544.50;;;8.99;92.04
34506;BME280;20748;42.632;23.198;2023-10-13T04:41:49;92541.84;;;9.05;92.40
34506;BME280;20748;42.632;23.198;2023-10-13T04:44:30;92536.69;;;8.99;92.31
34506;BME280;20748;42.632;23.198;2023-10-13T04:47:25;92537.41;;;9.05;93.10
34506;BME280;20748;42.632;23.198;2023-10-13T04:50:01;92543.41;;;9.06;93.46
34506;BME280;20748;42.632;23.198;2023-10-13T04:52:55;92550.69;;;9.04;92.34
34506;BME280;20748;42.632;23.198;2023-10-13T04:55:34;92548.69;;;8.95;93.04
34506;BME280;20748;42.632;23.198;2023-10-13T04:58:32;92547.41;;;8.93;93.58
34506;BME280;20748;42.632;23.198;2023-10-13T05:01:38;92562.50;;;8.96;93.97
34506;BME280;20748;42.632;23.198;2023-10-13T05:04:41;92566.91;;;8.95;93.68
34506;BME280;20748;42.632;23.198;2023-10-13T05:07:28;92570.03;;;8.92;94.17
34506;BME280;20748;42.632;23.198;2023-10-13T05:10:21;92566.91;;;8.95;94.02
34506;BME280;20748;42.632;23.198;2023-10-13T05:13:31;92572.81;;;9.01;93.84
34506;BME280;20748;42.632;23.198;2023-10-13T05:16:22;92581.66;;;9.05;93.20
34506;BME280;20748;42.632;23.198;2023-10-13T05:19:13;92574.97;;;8.94;93.88
34506;BME280;20748;42.632;23.198;2023-10-13T05:22:04;92582.75;;;8.99;93.89
34506;BME280;20748;42.632;23.198;2023-10-13T05:24:55;92591.06;;;9.01;94.49
34506;BME280;20748;42.632;23.198;2023-10-13T05:27:48;92592.41;;;8.98;95.33
34506;BME280;20748;42.632;23.198;2023-10-13T05:31:09;92596.53;;;8.99;95.62
34506;BME280;20748;42.632;23.198;2023-10-13T05:34:01;92593.66;;;9.01;95.52
34506;BME280;20748;42.632;23.198;2023-10-13T05:36:52;92597.03;;;9.02;95.95
34506;BME280;20748;42.632;23.198;2023-10-13T05:39:57;92602.75;;;9.04;95.91
34506;BME280;20748;42.632;23.198;2023-10-13T05:42:50;92605.53;;;9.12;96.62
34506;BME280;20748;42.632;23.198;2023-10-13T05:45:41;92621.41;;;9.16;96.02
34506;BME280;20748;42.632;23.198;2023-10-13T05:48:29;92621.34;;;9.21;96.48
34506;BME280;20748;42.632;23.198;2023-10-13T05:51:25;92618.13;;;9.35;96.22
34506;BME280;20748;42.632;23.198;2023-10-13T05:54:16;92619.09;;;9.39;96.41
34506;BME280;20748;42.632;23.198;2023-10-13T05:57:07;92613.03;;;9.49;95.54
34506;BME280;20748;42.632;23.198;2023-10-13T06:00:00;92609.03;;;9.57;96.17
34506;BME280;20748;42.632;23.198;2023-10-13T06:02:52;92613.41;;;9.66;95.45
34506;BME280;20748;42.632;23.198;2023-10-13T06:05:43;92618.47;;;9.77;94.16
34506;BME280;20748;42.632;23.198;2023-10-13T06:08:34;92614.66;;;9.93;94.64
34506;BME280;20748;42.632;23.198;2023-10-13T06:11:25;92614.53;;;10.04;94.45
34506;BME280;20748;42.632;23.198;2023-10-13T06:14:17;92631.84;;;10.19;94.29
34506;BME280;20748;42.632;23.198;2023-10-13T06:17:09;92628.47;;;10.38;93.22
34506;BME280;20748;42.632;23.198;2023-10-13T06:20:01;92630.84;;;10.58;93.09
34506;BME280;20748;42.632;23.198;2023-10-13T06:22:52;92631.13;;;10.76;89.62
34506;BME280;20748;42.632;23.198;2023-10-13T06:25:50;92634.22;;;10.97;89.12
34506;BME280;20748;42.632;23.198;2023-10-13T06:28:41;92639.91;;;11.19;89.78
34506;BME280;20748;42.632;23.198;2023-10-13T06:31:16;92639.88;;;11.38;89.65
34506;BME280;20748;42.632;23.198;2023-10-13T06:33:56;92648.41;;;11.58;89.34
34506;BME280;20748;42.632;23.198;2023-10-13T06:36:30;92643.13;;;11.77;88.63
34506;BME280;20748;42.632;23.198;2023-10-13T06:39:05;92646.72;;;11.95;87.68
34506;BME280;20748;42.632;23.198;2023-10-13T06:41:53;92646.38;;;12.16;87.61
34506;BME280;20748;42.632;23.198;2023-10-13T06:44:28;92651.78;;;12.33;87.15
34506;BME280;20748;42.632;23.198;2023-10-13T06:47:04;92645.06;;;12.55;85.92
34506;BME280;20748;42.632;23.198;2023-10-13T06:49:40;92644.44;;;12.72;85.18
34506;BME280;20748;42.632;23.198;2023-10-13T06:52:15;92644.94;;;12.97;83.67
34506;BME280;20748;42.632;23.198;2023-10-13T06:54:50;92646.91;;;13.14;82.51
34506;BME280;20748;42.632;23.198;2023-10-13T06:57:23;92642.56;;;13.33;81.14
34506;BME280;20748;42.632;23.198;2023-10-13T06:59:57;92635.81;;;13.54;80.11
34506;BME280;20748;42.632;23.198;2023-10-13T07:02:33;92642.50;;;13.69;79.78
34506;BME280;20748;42.632;23.198;2023-10-13T07:05:08;92633.59;;;13.79;78.78
34506;BME280;20748;42.632;23.198;2023-10-13T07:07:44;92629.41;;;14.10;78.56
34506;BME280;20748;42.632;23.198;2023-10-13T07:10:18;92625.44;;;14.30;77.85
34506;BME280;20748;42.632;23.198;2023-10-13T07:12:52;92623.19;;;14.55;76.30
34506;BME280;20748;42.632;23.198;2023-10-13T07:15:28;92619.34;;;14.79;75.77
34506;BME280;20748;42.632;23.198;2023-10-13T07:18:02;92625.56;;;15.01;73.29
34506;BME280;20748;42.632;23.198;2023-10-13T07:20:40;92626.28;;;15.28;72.43
34506;BME280;20748;42.632;23.198;2023-10-13T07:23:17;92638.47;;;15.41;71.17
34506;BME280;20748;42.632;23.198;2023-10-13T07:25:53;92634.91;;;15.55;69.61
34506;BME280;20748;42.632;23.198;2023-10-13T07:28:28;92629.41;;;15.87;70.16
34506;BME280;20748;42.632;23.198;2023-10-13T07:31:03;92625.28;;;16.16;68.91
34506;BME280;20748;42.632;23.198;2023-10-13T07:33:46;92636.91;;;16.45;65.74
34506;BME280;20748;42.632;23.198;2023-10-13T07:36:21;92639.91;;;16.64;61.83
34506;BME280;20748;42.632;23.198;2023-10-13T07:39:02;92635.97;;;16.92;62.74
34506;BME280;20748;42.632;23.198;2023-10-13T07:41:54;92629.75;;;17.18;60.17
34506;BME280;20748;42.632;23.198;2023-10-13T07:44:36;92624.03;;;17.50;61.68
34506;BME280;20748;42.632;23.198;2023-10-13T07:47:18;92620.50;;;17.79;59.08
34506;BME280;20748;42.632;23.198;2023-10-13T07:49:53;92626.91;;;18.03;57.92
34506;BME280;20748;42.632;23.198;2023-10-13T07:52:30;92629.13;;;18.26;57.72
34506;BME280;20748;42.632;23.198;2023-10-13T07:55:13;92631.41;;;18.40;55.64
34506;BME280;20748;42.632;23.198;2023-10-13T07:57:52;92617.00;;;18.62;55.46
34506;BME280;20748;42.632;23.198;2023-10-13T08:00:31;92620.88;;;18.52;56.08
34506;BME280;20748;42.632;23.198;2023-10-13T08:03:19;92632.03;;;18.74;55.87
34506;BME280;20748;42.632;23.198;2023-10-13T08:06:07;92622.03;;;18.80;55.41
34506;BME280;20748;42.632;23.198;2023-10-13T08:08:54;92619.84;;;19.11;55.18
34506;BME280;20748;42.632;23.198;2023-10-13T08:11:39;92612.13;;;19.47;55.29
34506;BME280;20748;42.632;23.198;2023-10-13T08:14:13;92611.97;;;19.71;52.00
34506;BME280;20748;42.632;23.198;2023-10-13T08:17:10;92611.91;;;20.00;52.21
34506;BME280;20748;42.632;23.198;2023-10-13T08:19:45;92615.16;;;20.25;50.28
34506;BME280;20748;42.632;23.198;2023-10-13T08:22:19;92616.81;;;20.30;49.84
34506;BME280;20748;42.632;23.198;2023-10-13T08:25:09;92613.50;;;20.53;47.96
34506;BME280;20748;42.632;23.198;2023-10-13T08:27:57;92621.84;;;20.71;48.00
34506;BME280;20748;42.632;23.198;2023-10-13T08:30:53;92630.00;;;20.82;48.35
34506;BME280;20748;42.632;23.198;2023-10-13T08:33:29;92637.47;;;20.76;48.24
34506;BME280;20748;42.632;23.198;2023-10-13T08:36:07;92640.28;;;20.84;48.68
34506;BME280;20748;42.632;23.198;2023-10-13T08:39:01;92642.00;;;20.92;48.88
34506;BME280;20748;42.632;23.198;2023-10-13T08:41:56;92626.72;;;20.85;48.37
34506;BME280;20748;42.632;23.198;2023-10-13T08:44:45;92625.13;;;21.00;48.61
34506;BME280;20748;42.632;23.198;2023-10-13T08:47:24;92616.31;;;20.96;48.69
34506;BME280;20748;42.632;23.198;2023-10-13T08:50:08;92628.63;;;21.04;47.14
34506;BME280;20748;42.632;23.198;2023-10-13T08:53:04;92618.41;;;21.26;45.61
34506;BME280;20748;42.632;23.198;2023-10-13T08:55:59;92624.91;;;21.29;46.75
34506;BME280;20748;42.632;23.198;2023-10-13T08:58:44;92627.28;;;21.34;46.23
34506;BME280;20748;42.632;23.198;2023-10-13T09:01:36;92627.28;;;21.14;46.34
34506;BME280;20748;42.632;23.198;2023-10-13T09:04:19;92629.44;;;21.09;47.70
34506;BME280;20748;42.632;23.198;2023-10-13T09:06:55;92620.19;;;21.18;47.49
34506;BME280;20748;42.632;23.198;2023-10-13T09:09:45;92623.44;;;21.31;46.13
34506;BME280;20748;42.632;23.198;2023-10-13T09:12:54;92620.22;;;21.42;45.01
34506;BME280;20748;42.632;23.198;2023-10-13T09:15:35;92618.03;;;21.48;42.82
34506;BME280;20748;42.632;23.198;2023-10-13T09:18:27;92623.63;;;21.62;42.46
34506;BME280;20748;42.632;23.198;2023-10-13T09:21:19;92626.09;;;21.94;42.18
34506;BME280;20748;42.632;23.198;2023-10-13T09:24:11;92615.03;;;22.16;41.91
34506;BME280;20748;42.632;23.198;2023-10-13T09:27:00;92617.53;;;22.28;42.49
34506;BME280;20748;42.632;23.198;2023-10-13T09:29:37;92610.94;;;22.45;41.11
34506;BME280;20748;42.632;23.198;2023-10-13T09:32:15;92603.22;;;22.36;40.03
34506;BME280;20748;42.632;23.198;2023-10-13T09:34:49;92607.00;;;22.62;40.52
34506;BME280;20748;42.632;23.198;2023-10-13T09:37:23;92610.22;;;22.75;39.89
34506;BME280;20748;42.632;23.198;2023-10-13T09:40:00;92607.56;;;22.75;39.45
34506;BME280;20748;42.632;23.198;2023-10-13T09:42:37;92595.94;;;22.87;38.87
34506;BME280;20748;42.632;23.198;2023-10-13T09:45:11;92599.41;;;22.91;39.27
34506;BME280;20748;42.632;23.198;2023-10-13T09:47:51;92604.75;;;22.95;39.17
34506;BME280;20748;42.632;23.198;2023-10-13T09:50:27;92598.66;;;23.25;39.34
34506;BME280;20748;42.632;23.198;2023-10-13T09:53:06;92595.72;;;23.34;38.29
34506;BME280;20748;42.632;23.198;2023-10-13T09:55:46;92594.91;;;23.30;38.18
34506;BME280;20748;42.632;23.198;2023-10-13T09:58:21;92595.28;;;23.28;37.93
34506;BME280;20748;42.632;23.198;2023-10-13T10:01:02;92595.00;;;23.37;37.89
34506;BME280;20748;42.632;23.198;2023-10-13T10:03:48;92592.72;;;23.36;37.50
34506;BME280;20748;42.632;23.198;2023-10-13T10:06:25;92594.69;;;23.42;37.08
34506;BME280;20748;42.632;23.198;2023-10-13T10:09:07;92593.38;;;23.29;37.97
34506;BME280;20748;42.632;23.198;2023-10-13T10:12:09;92588.75;;;23.22;37.51
34506;BME280;20748;42.632;23.198;2023-10-13T10:15:03;92581.69;;;23.03;38.15
34506;BME280;20748;42.632;23.198;2023-10-13T10:17:39;92579.63;;;23.23;36.90
34506;BME280;20748;42.632;23.198;2023-10-13T10:20:15;92575.31;;;23.45;37.20
34506;BME280;20748;42.632;23.198;2023-10-13T10:22:56;92579.19;;;23.52;38.27
34506;BME280;20748;42.632;23.198;2023-10-13T10:25:33;92579.25;;;23.59;36.92
34506;BME280;20748;42.632;23.198;2023-10-13T10:28:08;92571.50;;;23.84;37.42
34506;BME280;20748;42.632;23.198;2023-10-13T10:30:42;92573.81;;;23.90;36.50
34506;BME280;20748;42.632;23.198;2023-10-13T10:33:16;92567.31;;;23.87;35.95
34506;BME280;20748;42.632;23.198;2023-10-13T10:36:00;92569.38;;;23.59;35.72
34506;BME280;20748;42.632;23.198;2023-10-13T10:38:34;92560.63;;;23.59;35.14
34506;BME280;20748;42.632;23.198;2023-10-13T10:41:11;92566.06;;;23.73;35.58
34506;BME280;20748;42.632;23.198;2023-10-13T10:43:46;92571.03;;;23.75;35.18
34506;BME280;20748;42.632;23.198;2023-10-13T10:46:26;92573.41;;;23.87;34.54
34506;BME280;20748;42.632;23.198;2023-10-13T10:49:03;92573.78;;;23.86;34.84
34506;BME280;20748;42.632;23.198;2023-10-13T10:51:45;92569.66;;;23.96;35.76
34506;BME280;20748;42.632;23.198;2023-10-13T10:54:19;92568.00;;;24.22;34.82
34506;BME280;20748;42.632;23.198;2023-10-13T10:56:55;92561.63;;;24.37;34.71
34506;BME280;20748;42.632;23.198;2023-10-13T10:59:34;92564.03;;;24.57;34.64
34506;BME280;20748;42.632;23.198;2023-10-13T11:02:10;92554.91;;;24.62;34.59
34506;BME280;20748;42.632;23.198;2023-10-13T11:04:50;92558.72;;;24.61;33.88
34506;BME280;20748;42.632;23.198;2023-10-13T11:07:27;92559.06;;;24.56;33.76
34506;BME280;20748;42.632;23.198;2023-10-13T11:10:08;92559.09;;;24.59;33.72
34506;BME280;20748;42.632;23.198;2023-10-13T11:12:55;92547.38;;;24.78;33.11
34506;BME280;20748;42.632;23.198;2023-10-13T11:15:29;92546.91;;;24.65;33.60
34506;BME280;20748;42.632;23.198;2023-10-13T11:18:06;92549.25;;;24.74;33.64
34506;BME280;20748;42.632;23.198;2023-10-13T11:20:46;92544.22;;;24.62;32.97
34506;BME280;20748;42.632;23.198;2023-10-13T11:23:27;92541.09;;;24.45;32.53
34506;BME280;20748;42.632;23.198;2023-10-13T11:26:01;92539.56;;;24.40;33.67
34506;BME280;20748;42.632;23.198;2023-10-13T11:28:36;92542.59;;;24.39;33.21
34506;BME280;20748;42.632;23.198;2023-10-13T11:31:10;92533.41;;;24.33;33.08
34506;BME280;20748;42.632;23.198;2023-10-13T11:33:52;92534.09;;;24.22;32.98
34506;BME280;20748;42.632;23.198;2023-10-13T11:36:29;92531.69;;;24.66;32.97
34506;BME280;20748;42.632;23.198;2023-10-13T11:39:07;92536.78;;;24.93;32.50
34506;BME280;20748;42.632;23.198;2023-10-13T11:41:41;92527.25;;;24.99;32.71
34506;BME280;20748;42.632;23.198;2023-10-13T11:44:23;92528.38;;;24.91;33.12
34506;BME280;20748;42.632;23.198;2023-10-13T11:46:58;92523.06;;;25.02;32.36
34506;BME280;20748;42.632;23.198;2023-10-13T11:49:50;92521.97;;;25.17;31.90
34506;BME280;20748;42.632;23.198;2023-10-13T11:52:29;92519.28;;;25.03;32.18
34506;BME280;20748;42.632;23.198;2023-10-13T11:55:05;92518.50;;;25.06;31.87
34506;BME280;20748;42.632;23.198;2023-10-13T11:57:39;92517.00;;;25.12;31.82
34506;BME280;20748;42.632;23.198;2023-10-13T12:00:14;92521.97;;;25.06;31.71
34506;BME280;20748;42.632;23.198;2023-10-13T12:02:59;92506.03;;;25.50;31.99
34506;BME280;20748;42.632;23.198;2023-10-13T12:05:50;92506.38;;;25.34;31.41
34506;BME280;20748;42.632;23.198;2023-10-13T12:08:44;92513.66;;;25.48;31.16
34506;BME280;20748;42.632;23.198;2023-10-13T12:11:23;92503.72;;;25.52;30.98
34506;BME280;20748;42.632;23.198;2023-10-13T12:14:10;92499.91;;;25.39;30.32
34506;BME280;20748;42.632;23.198;2023-10-13T12:16:52;92502.16;;;25.15;31.19
34506;BME280;20748;42.632;23.198;2023-10-13T12:19:28;92499.13;;;25.34;31.51
34506;BME280;20748;42.632;23.198;2023-10-13T12:22:02;92494.94;;;25.41;30.99
34506;BME280;20748;42.632;23.198;2023-10-13T12:24:38;92501.03;;;25.38;30.55
34506;BME280;20748;42.632;23.198;2023-10-13T12:27:16;92503.31;;;25.28;30.07
34506;BME280;20748;42.632;23.198;2023-10-13T12:29:53;92506.69;;;25.07;30.84
34506;BME280;20748;42.632;23.198;2023-10-13T12:32:29;92498.38;;;25.38;30.90
34506;BME280;20748;42.632;23.198;2023-10-13T12:35:04;92499.16;;;25.49;30.78
34506;BME280;20748;42.632;23.198;2023-10-13T12:38:00;92493.84;;;25.64;30.95
34506;BME280;20748;42.632;23.198;2023-10-13T12:40:38;92492.72;;;25.76;29.48
34506;BME280;20748;42.632;23.198;2023-10-13T12:43:30;92490.72;;;25.29;29.62
34506;BME280;20748;42.632;23.198;2023-10-13T12:46:22;92489.03;;;24.73;30.22
34506;BME280;20748;42.632;23.198;2023-10-13T12:49:18;92486.69;;;24.61;30.45
34506;BME280;20748;42.632;23.198;2023-10-13T12:52:12;92490.91;;;24.69;30.84
34506;BME280;20748;42.632;23.198;2023-10-13T12:54:51;92487.97;;;24.85;30.67
34506;BME280;20748;42.632;23.198;2023-10-13T12:57:32;92492.47;;;24.77;30.95
34506;BME280;20748;42.632;23.198;2023-10-13T13:00:11;92484.47;;;24.74;30.55
34506;BME280;20748;42.632;23.198;2023-10-13T13:02:56;92469.19;;;24.67;30.73
34506;BME280;20748;42.632;23.198;2023-10-13T13:05:30;92482.19;;;24.76;30.89
34506;BME280;20748;42.632;23.198;2023-10-13T13:08:04;92484.81;;;24.65;30.20
34506;BME280;20748;42.632;23.198;2023-10-13T13:10:38;92484.47;;;24.77;30.44
34506;BME280;20748;42.632;23.198;2023-10-13T13:13:14;92478.38;;;24.77;30.14
34506;BME280;20748;42.632;23.198;2023-10-13T13:15:50;92472.25;;;24.69;29.73
34506;BME280;20748;42.632;23.198;2023-10-13T13:18:24;92474.19;;;24.79;30.08
34506;BME280;20748;42.632;23.198;2023-10-13T13:20:58;92482.53;;;24.71;29.58
34506;BME280;20748;42.632;23.198;2023-10-13T13:23:33;92478.28;;;24.55;29.04
34506;BME280;20748;42.632;23.198;2023-10-13T13:26:07;92481.31;;;24.50;30.26
34506;BME280;20748;42.632;23.198;2023-10-13T13:28:48;92480.56;;;24.57;30.02
34506;BME280;20748;42.632;23.198;2023-10-13T13:31:24;92480.91;;;24.48;30.82
34506;BME280;20748;42.632;23.198;2023-10-13T13:34:01;92483.72;;;24.06;30.17
34506;BME280;20748;42.632;23.198;2023-10-13T13:36:36;92468.06;;;24.01;30.93
34506;BME280;20748;42.632;23.198;2023-10-13T13:39:10;92476.94;;;24.12;31.32
34506;BME280;20748;42.632;23.198;2023-10-13T13:41:44;92476.56;;;24.14;31.25
34506;BME280;20748;42.632;23.198;2023-10-13T13:44:18;92480.44;;;24.27;30.82
34506;BME280;20748;42.632;23.198;2023-10-13T13:46:55;92474.38;;;24.34;30.37
34506;BME280;20748;42.632;23.198;2023-10-13T13:49:29;92482.41;;;24.42;30.45
34506;BME280;20748;42.632;23.198;2023-10-13T13:52:12;92484.75;;;24.50;30.07
34506;BME280;20748;42.632;23.198;2023-10-13T13:54:50;92480.94;;;24.55;30.28
34506;BME280;20748;42.632;23.198;2023-10-13T13:57:24;92477.16;;;24.52;30.71
34506;BME280;20748;42.632;23.198;2023-10-13T13:59:57;92479.28;;;24.25;30.39
34506;BME280;20748;42.632;23.198;2023-10-13T14:02:33;92483.19;;;23.82;31.12
34506;BME280;20748;42.632;23.198;2023-10-13T14:05:08;92474.81;;;23.84;31.13